createdAt,value
2023-09-07T00:02:15.769Z,23.40
2023-09-07T00:04:44.322Z,23.43
2023-09-07T00:07:12.525Z,23.33
2023-09-07T00:09:40.562Z,23.36
2023-09-07T00:12:08.722Z,23.29
2023-09-07T00:14:36.680Z,23.20
2023-09-07T00:17:06.842Z,23.24
2023-09-07T00:19:37.984Z,23.18
2023-09-07T00:22:06.559Z,23.10
2023-09-07T00:24:34.608Z,23.23
2023-09-07T00:27:05.453Z,23.19
2023-09-07T00:29:33.740Z,23.13
2023-09-07T00:32:01.663Z,23.15
2023-09-07T00:34:31.200Z,23.08
2023-09-07T00:36:59.616Z,23.10
2023-09-07T00:39:27.561Z,23.13
2023-09-07T00:41:56.390Z,23.10
2023-09-07T00:44:24.454Z,23.09
2023-09-07T00:46:52.734Z,22.95
2023-09-07T00:49:20.932Z,23.04
2023-09-07T00:51:50.504Z,23.03
2023-09-07T00:54:18.715Z,23.07
2023-09-07T00:56:47.305Z,23.07
2023-09-07T00:59:15.575Z,22.87
2023-09-07T01:01:44.442Z,22.90
2023-09-07T01:04:12.978Z,23.01
2023-09-07T01:06:46.887Z,22.93
2023-09-07T01:09:22.031Z,22.91
2023-09-07T01:11:51.216Z,22.90
2023-09-07T01:14:19.249Z,22.91
2023-09-07T01:16:47.454Z,22.88
2023-09-07T01:19:15.579Z,22.71
2023-09-07T01:25:58.034Z,22.85
2023-09-07T01:28:26.313Z,22.90
2023-09-07T01:30:54.583Z,22.81
2023-09-07T01:33:22.793Z,22.84
2023-09-07T01:35:51.166Z,22.74
2023-09-07T01:38:19.245Z,22.72
2023-09-07T01:40:47.272Z,22.80
2023-09-07T01:43:16.648Z,22.78
2023-09-07T01:45:44.678Z,22.70
2023-09-07T01:48:14.419Z,22.73
2023-09-07T01:50:42.704Z,22.59
2023-09-07T01:53:10.584Z,22.63
2023-09-07T01:55:38.728Z,22.60
2023-09-07T01:58:06.754Z,22.52
2023-09-07T02:00:40.097Z,22.50
2023-09-07T02:03:08.802Z,22.45
2023-09-07T02:05:36.737Z,22.36
2023-09-07T02:08:05.230Z,22.37
2023-09-07T02:10:33.248Z,22.21
2023-09-07T02:13:01.250Z,22.07
2023-09-07T02:15:29.150Z,22.11
2023-09-07T02:17:58.701Z,22.10
2023-09-07T02:20:26.875Z,22.05
2023-09-07T02:22:54.782Z,22.03
2023-09-07T02:25:23.338Z,21.99
2023-09-07T02:27:51.356Z,21.98
2023-09-07T02:30:19.651Z,21.97
2023-09-07T02:32:47.638Z,21.88
2023-09-07T02:35:17.119Z,21.95
2023-09-07T02:37:45.187Z,21.90
2023-09-07T02:40:13.729Z,22.04
2023-09-07T02:42:41.658Z,22.04
2023-09-07T02:45:11.839Z,22.02
2023-09-07T02:47:40.044Z,22.02
2023-09-07T02:50:09.300Z,21.92
2023-09-07T02:52:38.842Z,22.04
2023-09-07T02:55:08.084Z,22.06
2023-09-07T02:57:37.383Z,22.04
2023-09-07T03:00:10.578Z,22.01
2023-09-07T03:02:39.508Z,22.04
2023-09-07T03:05:08.000Z,22.02
2023-09-07T03:07:36.237Z,22.07
2023-09-07T03:10:05.830Z,22.02
2023-09-07T03:12:34.511Z,21.97
2023-09-07T03:15:04.687Z,21.84
2023-09-07T03:17:33.291Z,21.97
2023-09-07T03:20:01.302Z,22.07
2023-09-07T03:22:30.659Z,22.02
2023-09-07T03:24:59.018Z,21.95
2023-09-07T03:27:28.345Z,21.97
2023-09-07T03:29:56.270Z,21.97
2023-09-07T03:32:24.601Z,21.83
2023-09-07T03:34:52.630Z,21.98
2023-09-07T03:37:20.511Z,21.96
2023-09-07T03:39:49.394Z,21.89
2023-09-07T03:42:17.310Z,21.97
2023-09-07T03:44:46.711Z,21.77
2023-09-07T03:47:16.616Z,21.90
2023-09-07T03:49:45.403Z,21.88
2023-09-07T03:52:14.012Z,21.73
2023-09-07T03:54:41.934Z,21.71
2023-09-07T03:57:09.868Z,21.68
2023-09-07T03:59:37.793Z,21.85
2023-09-07T04:02:07.302Z,21.65
2023-09-07T04:04:35.638Z,21.60
2023-09-07T04:07:04.443Z,21.75
2023-09-07T04:09:32.927Z,21.54
2023-09-07T04:12:01.839Z,21.56
2023-09-07T04:14:31.401Z,21.49
2023-09-07T04:16:59.520Z,21.76
2023-09-07T04:19:28.988Z,21.54
2023-09-07T04:21:57.055Z,21.59
2023-09-07T04:24:25.336Z,21.77
2023-09-07T04:26:53.375Z,21.79
2023-09-07T04:29:21.358Z,21.92
2023-09-07T04:31:50.545Z,21.95
2023-09-07T04:34:18.772Z,22.09
2023-09-07T04:36:48.208Z,22.06
2023-09-07T04:39:16.333Z,22.08
2023-09-07T04:41:44.422Z,22.04
2023-09-07T04:44:12.755Z,21.93
2023-09-07T04:46:40.966Z,22.01
2023-09-07T04:49:09.493Z,21.85
2023-09-07T04:51:37.454Z,22.00
2023-09-07T04:54:07.165Z,21.99
2023-09-07T04:56:35.153Z,22.07
2023-09-07T04:59:03.392Z,21.97
2023-09-07T05:01:32.982Z,22.03
2023-09-07T05:04:03.077Z,21.93
2023-09-07T05:06:31.456Z,21.88
2023-09-07T05:08:59.499Z,21.75
2023-09-07T05:11:28.777Z,21.74
2023-09-07T05:13:56.801Z,21.96
2023-09-07T05:16:25.087Z,22.02
2023-09-07T05:18:53.135Z,22.08
2023-09-07T05:21:21.110Z,22.09
2023-09-07T05:23:49.376Z,22.01
2023-09-07T05:26:22.993Z,21.97
2023-09-07T05:28:52.439Z,22.25
2023-09-07T05:31:20.502Z,21.94
2023-09-07T05:33:48.833Z,22.06
2023-09-07T05:36:16.866Z,22.34
2023-09-07T05:38:44.773Z,22.32
2023-09-07T05:41:12.951Z,22.34
2023-09-07T05:43:40.961Z,22.30
2023-09-07T05:46:10.866Z,22.39
2023-09-07T05:48:39.052Z,22.39
2023-09-07T05:51:07.149Z,22.56
2023-09-07T05:53:35.074Z,22.31
2023-09-07T05:56:03.511Z,22.48
2023-09-07T05:58:31.727Z,22.70
2023-09-07T06:01:00.214Z,22.53
2023-09-07T06:03:30.121Z,22.82
2023-09-07T06:05:58.644Z,23.02
2023-09-07T06:08:26.577Z,23.03
2023-09-07T06:10:55.805Z,22.94
2023-09-07T06:13:23.750Z,22.83
2023-09-07T06:15:52.057Z,23.18
2023-09-07T06:18:20.514Z,23.16
2023-09-07T06:20:49.953Z,23.24
2023-09-07T06:23:18.104Z,23.20
2023-09-07T06:25:46.122Z,23.09
2023-09-07T06:28:15.124Z,23.38
2023-09-07T06:30:43.368Z,23.44
2023-09-07T06:33:11.512Z,23.43
2023-09-07T06:35:39.802Z,23.58
2023-09-07T06:38:09.404Z,23.67
2023-09-07T06:40:37.471Z,23.63
2023-09-07T06:43:06.478Z,23.38
2023-09-07T06:45:37.135Z,23.66
2023-09-07T06:48:06.476Z,23.85
2023-09-07T06:50:34.726Z,23.91
2023-09-07T06:53:03.935Z,23.83
2023-09-07T06:55:33.579Z,24.05
2023-09-07T06:58:02.516Z,23.89
2023-09-07T07:00:31.127Z,24.09
2023-09-07T07:02:59.845Z,24.08
2023-09-07T07:05:29.644Z,24.42
2023-09-07T07:07:57.799Z,24.53
2023-09-07T07:10:26.271Z,24.64
2023-09-07T07:12:55.713Z,24.21
2023-09-07T07:15:23.648Z,24.52
2023-09-07T07:17:51.759Z,24.50
2023-09-07T07:20:20.214Z,24.35
2023-09-07T07:22:48.132Z,24.55
2023-09-07T07:25:18.425Z,24.22
2023-09-07T07:27:47.096Z,24.64
2023-09-07T07:30:16.457Z,24.74
2023-09-07T07:32:44.480Z,24.58
2023-09-07T07:35:12.612Z,24.84
2023-09-07T07:37:40.630Z,24.86
2023-09-07T07:40:09.799Z,25.15
2023-09-07T07:42:38.204Z,25.28
2023-09-07T07:45:07.342Z,25.02
2023-09-07T07:47:36.596Z,25.21
2023-09-07T07:50:05.340Z,25.43
2023-09-07T07:52:33.660Z,25.28
2023-09-07T07:55:01.578Z,25.31
2023-09-07T07:57:29.491Z,25.47
2023-09-07T07:59:58.213Z,25.21
2023-09-07T08:02:27.530Z,25.50
2023-09-07T08:04:56.902Z,25.67
2023-09-07T08:07:24.976Z,25.67
2023-09-07T08:09:53.136Z,25.75
2023-09-07T08:12:21.232Z,25.94
2023-09-07T08:14:49.318Z,25.86
2023-09-07T08:17:17.507Z,26.11
2023-09-07T08:19:45.732Z,26.22
2023-09-07T08:22:15.051Z,25.67
2023-09-07T08:24:43.619Z,26.04
2023-09-07T08:27:12.532Z,26.32
2023-09-07T08:29:41.440Z,26.12
2023-09-07T08:32:12.887Z,26.39
2023-09-07T08:34:41.843Z,26.38
2023-09-07T08:37:09.853Z,26.03
2023-09-07T08:39:40.475Z,26.33
2023-09-07T08:42:09.070Z,26.48
2023-09-07T08:44:39.574Z,26.48
2023-09-07T08:47:08.310Z,26.61
2023-09-07T08:49:37.713Z,26.98
2023-09-07T08:52:07.832Z,26.82
2023-09-07T08:54:36.875Z,26.79
2023-09-07T08:57:07.459Z,26.96
2023-09-07T08:59:35.363Z,27.08
2023-09-07T09:02:05.492Z,26.95
2023-09-07T09:04:35.161Z,26.91
2023-09-07T09:07:04.980Z,27.47
2023-09-07T09:09:33.356Z,27.25
2023-09-07T09:12:10.603Z,27.36
2023-09-07T09:14:38.536Z,27.58
2023-09-07T09:17:06.437Z,27.17
2023-09-07T09:19:34.785Z,27.61
2023-09-07T09:22:04.894Z,27.86
2023-09-07T09:24:35.733Z,27.57
2023-09-07T09:27:03.813Z,27.92
2023-09-07T09:29:35.177Z,27.37
2023-09-07T09:32:05.735Z,27.66
2023-09-07T09:34:35.953Z,27.62
2023-09-07T09:37:04.723Z,27.85
2023-09-07T09:39:32.709Z,28.12
2023-09-07T09:42:01.204Z,27.79
2023-09-07T09:44:31.294Z,28.02
2023-09-07T09:47:01.716Z,28.80
2023-09-07T09:49:31.309Z,28.79
2023-09-07T09:52:00.673Z,28.37
2023-09-07T09:54:29.962Z,28.87
2023-09-07T09:56:57.963Z,28.81
2023-09-07T09:59:25.888Z,28.63
2023-09-07T10:01:56.188Z,28.77
2023-09-07T10:04:26.964Z,28.98
2023-09-07T10:07:00.543Z,29.55
2023-09-07T10:09:31.710Z,29.37
2023-09-07T10:12:01.099Z,29.55
2023-09-07T10:14:40.458Z,30.16
2023-09-07T10:17:10.672Z,30.62
2023-09-07T10:19:45.678Z,31.15
2023-09-07T10:22:23.481Z,31.47
2023-09-07T10:24:59.769Z,31.68
2023-09-07T10:27:27.694Z,31.61
2023-09-07T10:29:57.257Z,31.75
2023-09-07T10:32:25.374Z,32.28
2023-09-07T10:34:54.735Z,32.72
2023-09-07T10:37:31.068Z,32.56
2023-09-07T10:39:59.108Z,32.51
2023-09-07T10:42:27.786Z,32.77
2023-09-07T10:44:56.433Z,33.23
2023-09-07T10:47:24.356Z,33.42
2023-09-07T10:49:52.237Z,33.21
2023-09-07T10:52:21.612Z,33.30
2023-09-07T10:54:58.852Z,33.04
2023-09-07T10:57:27.902Z,33.44
2023-09-07T10:59:56.338Z,33.80
2023-09-07T11:02:27.290Z,33.61
2023-09-07T11:04:55.467Z,33.66
2023-09-07T11:07:24.789Z,33.67
2023-09-07T11:09:54.361Z,33.67
2023-09-07T11:12:23.236Z,33.30
2023-09-07T11:14:51.356Z,33.49
2023-09-07T11:17:19.360Z,33.13
2023-09-07T11:19:53.445Z,33.64
2023-09-07T11:22:21.369Z,33.38
2023-09-07T11:24:50.624Z,33.34
2023-09-07T11:27:20.006Z,33.51
2023-09-07T11:29:53.712Z,34.03
2023-09-07T11:32:23.736Z,33.69
2023-09-07T11:34:52.429Z,33.47
2023-09-07T11:37:24.975Z,33.61
2023-09-07T11:39:54.481Z,34.17
2023-09-07T11:42:22.467Z,33.28
2023-09-07T11:44:50.372Z,34.15
2023-09-07T11:47:18.407Z,34.33
2023-09-07T11:49:46.525Z,33.14
2023-09-07T11:52:14.577Z,33.18
2023-09-07T11:54:42.487Z,33.65
2023-09-07T11:57:11.805Z,33.48
2023-09-07T11:59:56.132Z,33.68
2023-09-07T12:02:27.984Z,34.13
2023-09-07T12:04:56.618Z,33.48
2023-09-07T12:07:24.743Z,33.69
2023-09-07T12:09:52.846Z,33.60
2023-09-07T12:12:22.256Z,33.37
2023-09-07T12:14:50.182Z,32.43
2023-09-07T12:17:18.490Z,32.84
2023-09-07T12:19:47.063Z,33.46
2023-09-07T12:22:15.124Z,32.60
2023-09-07T12:24:43.004Z,32.25
2023-09-07T12:27:10.921Z,32.52
2023-09-07T12:29:40.252Z,32.15
2023-09-07T12:32:08.226Z,32.30
2023-09-07T12:34:36.253Z,32.46
2023-09-07T12:37:05.565Z,32.34
2023-09-07T12:39:33.782Z,31.70
2023-09-07T12:42:02.652Z,31.86
2023-09-07T12:44:30.537Z,32.27
2023-09-07T12:46:59.843Z,32.39
2023-09-07T12:49:27.713Z,32.36
2023-09-07T12:51:55.600Z,31.91
2023-09-07T12:54:23.609Z,32.15
2023-09-07T12:56:51.596Z,32.24
2023-09-07T12:59:19.488Z,31.90
2023-09-07T13:01:48.541Z,31.66
2023-09-07T13:04:17.794Z,31.99
2023-09-07T13:06:45.677Z,31.98
2023-09-07T13:09:13.645Z,31.74
2023-09-07T13:11:41.571Z,31.81
2023-09-07T13:14:12.124Z,31.81
2023-09-07T13:16:40.558Z,31.89
2023-09-07T13:19:08.702Z,31.74
2023-09-07T13:21:38.005Z,32.04
2023-09-07T13:24:06.393Z,31.89
2023-09-07T13:26:34.810Z,31.85
2023-09-07T13:29:02.722Z,31.31
2023-09-07T13:31:30.715Z,31.72
2023-09-07T13:33:58.652Z,31.84
2023-09-07T13:36:26.610Z,31.71
2023-09-07T13:38:57.944Z,31.75
2023-09-07T13:41:25.856Z,31.02
2023-09-07T13:43:54.951Z,31.61
2023-09-07T13:46:24.422Z,31.56
2023-09-07T13:48:52.421Z,31.81
2023-09-07T13:51:20.332Z,31.94
2023-09-07T13:53:48.260Z,31.91
2023-09-07T13:56:17.629Z,31.93
2023-09-07T13:58:45.529Z,31.68
2023-09-07T14:01:13.467Z,31.70
2023-09-07T14:03:41.666Z,31.59
2023-09-07T14:06:09.490Z,31.15
2023-09-07T14:08:37.374Z,30.77
2023-09-07T14:11:05.369Z,31.52
2023-09-07T14:13:36.306Z,31.28
2023-09-07T14:16:04.332Z,31.39
2023-09-07T14:18:32.319Z,31.87
2023-09-07T14:21:02.102Z,31.86
2023-09-07T14:23:30.338Z,32.13
2023-09-07T14:25:59.977Z,31.50
2023-09-07T14:28:28.095Z,31.62
2023-09-07T14:30:59.978Z,31.82
2023-09-07T14:33:28.015Z,31.50
2023-09-07T14:35:56.129Z,31.37
2023-09-07T14:38:24.916Z,31.63
2023-09-07T14:40:55.785Z,31.73
2023-09-07T14:43:24.005Z,31.57
2023-09-07T14:45:51.953Z,31.77
2023-09-07T14:48:21.262Z,31.84
2023-09-07T14:50:49.249Z,31.43
2023-09-07T14:53:18.272Z,31.61
2023-09-07T14:55:46.905Z,31.33
2023-09-07T14:58:15.302Z,31.57
2023-09-07T15:00:43.238Z,31.67
2023-09-07T15:03:11.283Z,31.94
2023-09-07T15:05:42.101Z,31.77
2023-09-07T15:08:10.984Z,31.82
2023-09-07T15:10:39.031Z,31.62
2023-09-07T15:13:08.142Z,31.54
2023-09-07T15:15:38.364Z,31.18
2023-09-07T15:18:06.895Z,31.69
2023-09-07T15:20:35.258Z,31.30
2023-09-07T15:23:05.500Z,31.40
2023-09-07T15:25:33.680Z,30.88
2023-09-07T15:28:01.636Z,30.75
2023-09-07T15:30:29.641Z,30.96
2023-09-07T15:32:57.680Z,31.29
2023-09-07T15:35:27.077Z,30.98
2023-09-07T15:37:55.777Z,31.09
2023-09-07T15:40:25.181Z,31.15
2023-09-07T15:42:53.033Z,31.03
2023-09-07T15:45:20.968Z,31.35
2023-09-07T15:47:49.713Z,31.42
2023-09-07T15:50:17.724Z,30.92
2023-09-07T15:52:48.324Z,30.93
2023-09-07T15:55:17.290Z,31.17
2023-09-07T15:57:48.635Z,31.20
2023-09-07T16:00:17.891Z,31.29
2023-09-07T16:02:46.072Z,31.44
2023-09-07T16:05:14.145Z,30.88
2023-09-07T16:07:42.195Z,30.92
2023-09-07T16:10:11.235Z,30.73
2023-09-07T16:12:39.198Z,30.81
2023-09-07T16:15:09.875Z,30.94
2023-09-07T16:17:38.998Z,30.92
2023-09-07T16:20:09.709Z,30.74
2023-09-07T16:22:37.747Z,31.13
2023-09-07T16:25:06.175Z,30.98
2023-09-07T16:27:39.297Z,30.91
2023-09-07T16:30:09.426Z,30.95
2023-09-07T16:32:38.908Z,30.73
2023-09-07T16:35:07.577Z,30.69
2023-09-07T16:37:35.538Z,30.67
2023-09-07T16:40:03.875Z,30.72
2023-09-07T16:42:31.798Z,30.52
2023-09-07T16:44:59.686Z,30.61
2023-09-07T16:47:29.061Z,30.56
2023-09-07T16:49:57.076Z,30.58
2023-09-07T16:52:24.980Z,30.72
2023-09-07T16:54:52.987Z,30.44
2023-09-07T16:57:21.282Z,30.47
2023-09-07T16:59:56.978Z,30.32
2023-09-07T17:02:26.093Z,30.01
2023-09-07T17:04:55.564Z,30.07
2023-09-07T17:07:24.366Z,30.16
2023-09-07T17:09:52.666Z,30.11
2023-09-07T17:12:20.593Z,30.08
2023-09-07T17:14:49.331Z,29.97
2023-09-07T17:17:17.523Z,29.94
2023-09-07T17:19:45.570Z,29.99
2023-09-07T17:22:14.859Z,29.72
2023-09-07T17:24:42.837Z,29.79
2023-09-07T17:27:10.825Z,29.75
2023-09-07T17:29:38.911Z,29.80
2023-09-07T17:32:07.515Z,29.79
2023-09-07T17:34:37.025Z,29.33
2023-09-07T17:37:06.783Z,29.39
2023-09-07T17:39:37.563Z,29.51
2023-09-07T17:42:06.256Z,29.50
2023-09-07T17:44:34.435Z,29.39
2023-09-07T17:47:02.514Z,29.41
2023-09-07T17:49:30.434Z,29.55
2023-09-07T17:51:59.369Z,29.24
2023-09-07T17:54:27.923Z,29.32
2023-09-07T17:56:57.332Z,29.14
2023-09-07T17:59:25.553Z,29.07
2023-09-07T18:01:56.970Z,28.95
2023-09-07T18:04:25.635Z,28.91
2023-09-07T18:06:53.730Z,28.96
2023-09-07T18:09:21.711Z,28.94
2023-09-07T18:11:49.780Z,28.83
2023-09-07T18:14:19.024Z,28.29
2023-09-07T18:16:47.117Z,28.67
2023-09-07T18:19:15.058Z,28.74
2023-09-07T18:21:43.018Z,28.49
2023-09-07T18:24:11.136Z,28.37
2023-09-07T18:26:39.086Z,28.27
2023-09-07T18:29:07.047Z,28.38
2023-09-07T18:31:36.476Z,28.15
2023-09-07T18:34:05.562Z,28.16
2023-09-07T18:36:33.746Z,28.08
2023-09-07T18:39:01.647Z,28.10
2023-09-07T18:41:29.810Z,27.76
2023-09-07T18:43:57.667Z,27.91
2023-09-07T18:46:25.769Z,27.92
2023-09-07T18:48:55.126Z,27.60
2023-09-07T18:51:23.119Z,27.68
2023-09-07T18:53:51.112Z,27.75
2023-09-07T18:56:19.057Z,27.74
2023-09-07T18:58:46.932Z,27.76
2023-09-07T19:01:16.688Z,27.68
2023-09-07T19:03:47.473Z,27.73
2023-09-07T19:06:17.066Z,27.63
2023-09-07T19:08:45.242Z,27.59
2023-09-07T19:11:15.881Z,27.56
2023-09-07T19:13:44.286Z,27.41
2023-09-07T19:16:15.322Z,27.33
2023-09-07T19:18:43.583Z,27.25
2023-09-07T19:21:23.307Z,27.14
2023-09-07T19:23:54.244Z,27.03
2023-09-07T19:26:33.287Z,27.29
2023-09-07T19:29:03.641Z,26.98
2023-09-07T19:31:31.838Z,26.75
2023-09-07T19:34:00.309Z,26.89
2023-09-07T19:36:29.331Z,27.05
2023-09-07T19:39:01.494Z,27.01
2023-09-07T19:41:30.348Z,27.11
2023-09-07T19:43:58.620Z,26.91
2023-09-07T19:46:26.894Z,26.84
2023-09-07T19:48:55.272Z,26.78
2023-09-07T19:51:24.475Z,26.88
2023-09-07T19:53:52.512Z,26.85
2023-09-07T19:56:24.917Z,26.71
2023-09-07T19:58:54.453Z,26.72
2023-09-07T20:01:23.789Z,26.44
2023-09-07T20:03:53.775Z,26.63
2023-09-07T20:06:23.356Z,26.59
2023-09-07T20:08:52.490Z,26.61
2023-09-07T20:11:21.768Z,26.61
2023-09-07T20:13:49.722Z,26.42
2023-09-07T20:16:17.776Z,26.14
2023-09-07T20:18:47.165Z,26.30
2023-09-07T20:21:15.126Z,26.25
2023-09-07T20:23:43.029Z,26.06
2023-09-07T20:26:11.022Z,26.30
2023-09-07T20:28:42.504Z,26.11
2023-09-07T20:31:11.134Z,26.13
2023-09-07T20:33:39.655Z,26.17
2023-09-07T20:36:08.252Z,26.08
2023-09-07T20:38:37.221Z,26.09
2023-09-07T20:41:05.663Z,26.06
2023-09-07T20:43:33.677Z,26.02
2023-09-07T20:46:05.858Z,26.02
2023-09-07T20:48:34.661Z,25.89
2023-09-07T20:51:05.500Z,25.75
2023-09-07T20:53:33.879Z,25.50
2023-09-07T20:56:01.747Z,25.54
2023-09-07T20:58:29.762Z,25.44
2023-09-07T21:00:57.968Z,25.44
2023-09-07T21:03:27.484Z,25.31
2023-09-07T21:05:55.909Z,25.57
2023-09-07T21:08:23.807Z,25.58
2023-09-07T21:10:51.818Z,25.33
2023-09-07T21:13:19.796Z,25.29
2023-09-07T21:15:47.760Z,25.08
2023-09-07T21:18:15.853Z,25.01
2023-09-07T21:20:47.322Z,25.21
2023-09-07T21:23:15.495Z,25.16
2023-09-07T21:25:44.726Z,24.89
2023-09-07T21:28:12.761Z,25.11
2023-09-07T21:30:40.875Z,25.07
2023-09-07T21:33:10.426Z,25.19
2023-09-07T21:35:38.617Z,25.21
2023-09-07T21:38:08.163Z,25.10
2023-09-07T21:40:36.543Z,25.13
2023-09-07T21:43:04.678Z,25.05
2023-09-07T21:45:32.686Z,25.03
2023-09-07T21:48:00.702Z,25.10
2023-09-07T21:50:28.772Z,24.93
2023-09-07T21:52:56.732Z,24.99
2023-09-07T21:55:26.138Z,25.02
2023-09-07T21:57:54.097Z,24.97
2023-09-07T22:00:22.603Z,24.83
2023-09-07T22:02:51.101Z,24.91
2023-09-07T22:05:19.905Z,24.75
2023-09-07T22:07:47.924Z,24.77
2023-09-07T22:10:16.053Z,24.73
2023-09-07T22:12:45.397Z,24.76
2023-09-07T22:15:13.451Z,24.44
2023-09-07T22:17:43.907Z,24.61
2023-09-07T22:20:12.278Z,24.60
2023-09-07T22:22:40.261Z,24.61
2023-09-07T22:25:09.232Z,24.68
2023-09-07T22:27:37.267Z,24.61
2023-09-07T22:30:08.353Z,24.73
2023-09-07T22:32:36.547Z,24.64
2023-09-07T22:35:06.643Z,24.72
2023-09-07T22:37:34.693Z,24.42
2023-09-07T22:40:02.708Z,24.52
2023-09-07T22:42:30.718Z,24.44
2023-09-07T22:44:58.872Z,24.48
2023-09-07T22:47:28.167Z,24.46
2023-09-07T22:49:56.356Z,24.39
2023-09-07T22:52:24.689Z,24.47
2023-09-07T22:54:52.778Z,24.53
2023-09-07T22:57:20.984Z,24.45
2023-09-07T22:59:49.116Z,24.42
2023-09-07T23:02:17.113Z,24.25
2023-09-07T23:04:46.501Z,24.38
2023-09-07T23:07:14.726Z,24.26
2023-09-07T23:09:46.365Z,24.35
2023-09-07T23:12:14.567Z,24.31
2023-09-07T23:14:43.012Z,24.42
2023-09-07T23:17:11.100Z,24.34
2023-09-07T23:19:39.385Z,24.27
2023-09-07T23:22:08.884Z,24.31
2023-09-07T23:24:36.899Z,24.28
2023-09-07T23:27:05.982Z,24.22
2023-09-07T23:29:34.413Z,24.18
2023-09-07T23:32:02.864Z,24.24
2023-09-07T23:34:32.564Z,24.16
2023-09-07T23:37:00.960Z,24.11
2023-09-07T23:39:30.534Z,24.00
2023-09-07T23:41:58.674Z,24.00
2023-09-07T23:44:26.773Z,23.86
2023-09-07T23:46:54.775Z,24.12
2023-09-07T23:49:22.903Z,24.05
2023-09-07T23:51:50.917Z,23.77
2023-09-07T23:54:18.974Z,23.91
2023-09-07T23:56:48.473Z,23.94
2023-09-07T23:59:16.552Z,24.02
